CPX665 Details

Departure: Savannah/Hilton Head International Airport (KSAV)
Arrival: Miami International Airport (KMIA)
Route: KELER V437 OMN V3 FLL


Current Weather Information
KSAV 250953Z 22003KT 10SM SCT120 23/19 A3009 RMK AO2 SLP188 T02280189
KMIA 250953Z 05005KT 10SM SCT033 25/18 A3003 RMK AO2 SLP170 T02500178 $